EJM68 KVNY-KOPF
Flight info
| Callsign | EJM68 |
|---|---|
| Flight time | 5h 5m |
| Altitude | 45000 |
| Route | BLH J50 ELP J86 LEV Y290 GAWKS CUURT1 |
| Aircraft | C680/M-SDFGHRWY/SB1 |
Departure
| Time | 2026-04-20 20:54 |
|---|---|
| Airport | Van Nuys Airport (KVNY) |
Arrival
| Time | 2026-04-21 02:00 |
|---|---|
| Airport | Miami-Opa Locka Executive Airport (KOPF) |
| Time | Latitude | Longitude | Altitude | Speed | Heading |
|---|---|---|---|---|---|
| 2026-04-20 20:42 | 34.20835 | -118.48767 | 805 ft | 0 kts | 0° |
| 2026-04-20 20:47 | 34.20835 | -118.48768 | 805 ft | 0 kts | 0° |
| 2026-04-20 20:50 | 34.20849 | -118.48768 | 805 ft | 4 kts | 360° |
| 2026-04-20 20:51 | 34.20862 | -118.48799 | 805 ft | 6 kts | 272° |
| 2026-04-20 20:51 | 34.20895 | -118.48826 | 805 ft | 8 kts | 354° |
| 2026-04-20 20:51 | 34.20960 | -118.48833 | 805 ft | 11 kts | 355° |
| 2026-04-20 20:51 | 34.21052 | -118.48840 | 805 ft | 15 kts | 357° |
| 2026-04-20 20:52 | 34.21167 | -118.48851 | 805 ft | 18 kts | 353° |
| 2026-04-20 20:52 | 34.21302 | -118.48864 | 805 ft | 21 kts | 356° |
| 2026-04-20 20:52 | 34.21457 | -118.48879 | 805 ft | 23 kts | 355° |
| 2026-04-20 20:52 | 34.21622 | -118.48910 | 805 ft | 25 kts | 346° |
| 2026-04-20 20:53 | 34.21794 | -118.48941 | 805 ft | 26 kts | 357° |
| 2026-04-20 20:53 | 34.21892 | -118.48995 | 805 ft | 13 kts | 266° |
| 2026-04-20 20:53 | 34.21878 | -118.49106 | 805 ft | 13 kts | 239° |
| 2026-04-20 20:53 | 34.21822 | -118.49119 | 805 ft | 0 kts | 175° |
| 2026-04-20 20:54 | 34.21588 | -118.49095 | 805 ft | 78 kts | 178° |
| 2026-04-20 20:54 | 34.20784 | -118.49029 | 918 ft | 147 kts | 172° |
| 2026-04-20 20:54 | 34.19725 | -118.48882 | 1895 ft | 159 kts | 172° |
| 2026-04-20 20:54 | 34.18523 | -118.48710 | 2663 ft | 186 kts | 172° |
| 2026-04-20 20:55 | 34.17320 | -118.48018 | 3367 ft | 203 kts | 135° |
| 2026-04-20 20:55 | 34.16449 | -118.46613 | 4108 ft | 221 kts | 124° |
| 2026-04-20 20:55 | 34.15523 | -118.44964 | 4870 ft | 249 kts | 124° |
| 2026-04-20 20:55 | 34.14544 | -118.43190 | 5606 ft | 256 kts | 124° |
| 2026-04-20 20:56 | 34.13954 | -118.41124 | 6340 ft | 269 kts | 103° |
| 2026-04-20 20:56 | 34.13734 | -118.38827 | 6969 ft | 282 kts | 97° |
| 2026-04-20 20:56 | 34.13565 | -118.36420 | 7006 ft | 286 kts | 98° |
| 2026-04-20 20:56 | 34.13309 | -118.34099 | 7013 ft | 273 kts | 102° |
| 2026-04-20 20:57 | 34.12974 | -118.31870 | 7014 ft | 270 kts | 103° |
| 2026-04-20 20:57 | 34.12668 | -118.29686 | 7611 ft | 256 kts | 102° |
| 2026-04-20 20:57 | 34.12391 | -118.27505 | 8368 ft | 272 kts | 102° |
| 2026-04-20 20:57 | 34.12094 | -118.25198 | 9047 ft | 280 kts | 102° |
| 2026-04-20 20:58 | 34.11791 | -118.22874 | 9809 ft | 284 kts | 102° |
| 2026-04-20 20:58 | 34.11452 | -118.20367 | 10007 ft | 324 kts | 102° |
| 2026-04-20 20:58 | 34.11033 | -118.17599 | 10001 ft | 341 kts | 108° |
| 2026-04-20 20:58 | 34.10064 | -118.15027 | 9995 ft | 344 kts | 118° |
| 2026-04-20 20:59 | 34.09510 | -118.12173 | 9998 ft | 355 kts | 98° |
| 2026-04-20 20:59 | 34.09467 | -118.09197 | 10054 ft | 349 kts | 94° |
| 2026-04-20 20:59 | 34.09026 | -118.06503 | 10639 ft | 309 kts | 110° |
| 2026-04-20 20:59 | 34.08487 | -118.04059 | 11355 ft | 298 kts | 108° |
| 2026-04-20 21:00 | 34.07919 | -118.01637 | 12103 ft | 302 kts | 111° |
| 2026-04-20 21:00 | 34.07183 | -117.99262 | 12838 ft | 303 kts | 116° |
| 2026-04-20 21:00 | 34.06382 | -117.96895 | 13884 ft | 306 kts | 116° |
| 2026-04-20 21:00 | 34.05623 | -117.94465 | 14830 ft | 313 kts | 114° |
| 2026-04-20 21:01 | 34.04883 | -117.91970 | 15761 ft | 319 kts | 114° |
| 2026-04-20 21:01 | 34.04111 | -117.89437 | 16678 ft | 324 kts | 115° |
| 2026-04-20 21:01 | 34.03308 | -117.86873 | 17590 ft | 329 kts | 116° |
| 2026-04-20 21:01 | 34.02497 | -117.84270 | 18460 ft | 335 kts | 115° |
| 2026-04-20 21:02 | 34.01742 | -117.81627 | 19199 ft | 343 kts | 110° |
| 2026-04-20 21:02 | 34.01328 | -117.78726 | 19973 ft | 350 kts | 102° |
| 2026-04-20 21:02 | 34.00988 | -117.75843 | 20718 ft | 354 kts | 103° |
| 2026-04-20 21:02 | 34.00612 | -117.72894 | 21446 ft | 358 kts | 103° |
| 2026-04-20 21:03 | 34.00224 | -117.69911 | 22174 ft | 362 kts | 103° |
| 2026-04-20 21:03 | 33.99846 | -117.66898 | 22904 ft | 366 kts | 102° |
| 2026-04-20 21:03 | 33.99466 | -117.63841 | 23606 ft | 370 kts | 102° |
| 2026-04-20 21:03 | 33.99077 | -117.60763 | 24201 ft | 373 kts | 103° |
| 2026-04-20 21:04 | 33.98682 | -117.57667 | 24789 ft | 376 kts | 103° |
| 2026-04-20 21:04 | 33.98284 | -117.54534 | 25364 ft | 379 kts | 103° |
| 2026-04-20 21:04 | 33.97890 | -117.51429 | 25892 ft | 381 kts | 102° |
| 2026-04-20 21:04 | 33.97485 | -117.48250 | 26426 ft | 385 kts | 102° |
| 2026-04-20 21:05 | 33.97076 | -117.45054 | 26948 ft | 387 kts | 102° |
| 2026-04-20 21:05 | 33.96665 | -117.41838 | 27476 ft | 390 kts | 102° |
| 2026-04-20 21:05 | 33.96250 | -117.38601 | 27973 ft | 392 kts | 102° |
| 2026-04-20 21:05 | 33.95831 | -117.35341 | 28523 ft | 393 kts | 102° |
| 2026-04-20 21:06 | 33.95413 | -117.32094 | 29166 ft | 391 kts | 103° |
| 2026-04-20 21:06 | 33.94995 | -117.28858 | 29795 ft | 390 kts | 103° |
| 2026-04-20 21:06 | 33.94578 | -117.25642 | 30361 ft | 389 kts | 103° |
| 2026-04-20 21:06 | 33.94161 | -117.22426 | 30820 ft | 389 kts | 103° |
| 2026-04-20 21:07 | 33.93748 | -117.19245 | 31258 ft | 390 kts | 103° |
| 2026-04-20 21:07 | 33.93322 | -117.15976 | 31686 ft | 390 kts | 103° |
| 2026-04-20 21:07 | 33.92905 | -117.12770 | 32248 ft | 387 kts | 103° |
| 2026-04-20 21:07 | 33.92486 | -117.09570 | 32700 ft | 387 kts | 103° |
| 2026-04-20 21:08 | 33.92071 | -117.06411 | 33138 ft | 387 kts | 103° |
| 2026-04-20 21:08 | 33.91650 | -117.03201 | 33587 ft | 388 kts | 103° |
| 2026-04-20 21:08 | 33.91228 | -116.99994 | 34009 ft | 388 kts | 103° |
| 2026-04-20 21:08 | 33.90804 | -116.96781 | 34390 ft | 388 kts | 103° |
| 2026-04-20 21:09 | 33.90381 | -116.93574 | 34778 ft | 387 kts | 103° |
| 2026-04-20 21:09 | 33.89958 | -116.90381 | 35137 ft | 386 kts | 103° |
| 2026-04-20 21:09 | 33.89534 | -116.87185 | 35465 ft | 387 kts | 103° |
| 2026-04-20 21:09 | 33.89107 | -116.83977 | 35722 ft | 388 kts | 103° |
| 2026-04-20 21:10 | 33.88682 | -116.80784 | 36102 ft | 386 kts | 103° |
| 2026-04-20 21:10 | 33.88258 | -116.77602 | 36460 ft | 385 kts | 103° |
| 2026-04-20 21:10 | 33.87834 | -116.74429 | 36830 ft | 383 kts | 103° |
| 2026-04-20 21:10 | 33.87408 | -116.71263 | 37180 ft | 383 kts | 103° |
| 2026-04-20 21:11 | 33.86984 | -116.68101 | 37537 ft | 382 kts | 104° |
| 2026-04-20 21:11 | 33.86565 | -116.64984 | 37853 ft | 383 kts | 103° |
| 2026-04-20 21:11 | 33.86139 | -116.61826 | 38255 ft | 383 kts | 103° |
| 2026-04-20 21:11 | 33.85711 | -116.58667 | 38620 ft | 382 kts | 103° |
| 2026-04-20 21:12 | 33.85286 | -116.55515 | 38867 ft | 382 kts | 103° |
| 2026-04-20 21:12 | 33.84858 | -116.52363 | 39108 ft | 382 kts | 103° |
| 2026-04-20 21:12 | 33.84428 | -116.49205 | 39309 ft | 383 kts | 103° |
| 2026-04-20 21:12 | 33.83996 | -116.46036 | 39511 ft | 384 kts | 103° |
| 2026-04-20 21:13 | 33.83563 | -116.42856 | 39711 ft | 386 kts | 103° |
| 2026-04-20 21:13 | 33.83128 | -116.39671 | 39918 ft | 387 kts | 103° |
| 2026-04-20 21:13 | 33.82689 | -116.36471 | 40120 ft | 388 kts | 104° |
| 2026-04-20 21:13 | 33.82248 | -116.33260 | 40328 ft | 389 kts | 104° |
| 2026-04-20 21:14 | 33.81806 | -116.30040 | 40536 ft | 390 kts | 104° |
| 2026-04-20 21:14 | 33.81360 | -116.26810 | 40742 ft | 392 kts | 104° |
| 2026-04-20 21:14 | 33.80913 | -116.23570 | 40945 ft | 393 kts | 103° |
| 2026-04-20 21:14 | 33.80463 | -116.20318 | 41071 ft | 396 kts | 103° |
| 2026-04-20 21:15 | 33.80009 | -116.17046 | 41288 ft | 396 kts | 103° |
| 2026-04-20 21:15 | 33.79555 | -116.13774 | 41502 ft | 397 kts | 104° |
| 2026-04-20 21:15 | 33.79098 | -116.10493 | 41714 ft | 399 kts | 104° |
| 2026-04-20 21:15 | 33.78639 | -116.07199 | 41924 ft | 400 kts | 104° |
| 2026-04-20 21:16 | 33.78178 | -116.03899 | 42128 ft | 401 kts | 104° |
| 2026-04-20 21:16 | 33.77714 | -116.00587 | 42325 ft | 402 kts | 104° |
| 2026-04-20 21:16 | 33.77255 | -115.97315 | 42521 ft | 403 kts | 104° |
| 2026-04-20 21:16 | 33.76787 | -115.93988 | 42714 ft | 404 kts | 104° |
| 2026-04-20 21:17 | 33.76317 | -115.90652 | 42899 ft | 405 kts | 104° |
| 2026-04-20 21:17 | 33.75844 | -115.87301 | 43088 ft | 406 kts | 104° |
| 2026-04-20 21:17 | 33.75370 | -115.83953 | 43284 ft | 407 kts | 104° |
| 2026-04-20 21:17 | 33.74895 | -115.80594 | 43459 ft | 408 kts | 104° |
| 2026-04-20 21:18 | 33.74416 | -115.77224 | 43646 ft | 409 kts | 104° |
| 2026-04-20 21:18 | 33.73936 | -115.73856 | 43827 ft | 410 kts | 104° |
| 2026-04-20 21:18 | 33.73454 | -115.70471 | 43982 ft | 411 kts | 104° |
| 2026-04-20 21:18 | 33.72970 | -115.67082 | 44124 ft | 412 kts | 104° |
| 2026-04-20 21:19 | 33.72483 | -115.63684 | 44252 ft | 413 kts | 104° |
| 2026-04-20 21:19 | 33.72001 | -115.60327 | 44325 ft | 414 kts | 104° |
| 2026-04-20 21:19 | 33.71511 | -115.56916 | 44450 ft | 415 kts | 104° |
| 2026-04-20 21:20 | 33.70525 | -115.50078 | 44695 ft | 416 kts | 104° |
| 2026-04-20 21:20 | 33.70029 | -115.46646 | 44814 ft | 416 kts | 104° |
| 2026-04-20 21:20 | 33.69534 | -115.43228 | 44931 ft | 416 kts | 104° |
| 2026-04-20 21:21 | 33.68531 | -115.36338 | 44946 ft | 422 kts | 104° |
| 2026-04-20 21:21 | 33.67510 | -115.29336 | 44949 ft | 429 kts | 104° |
| 2026-04-20 21:22 | 33.66469 | -115.22239 | 44940 ft | 434 kts | 104° |
| 2026-04-20 21:22 | 33.65411 | -115.15046 | 44946 ft | 440 kts | 104° |
| 2026-04-20 21:23 | 33.64342 | -115.07815 | 44950 ft | 445 kts | 104° |
| 2026-04-20 21:23 | 33.63251 | -115.00460 | 44944 ft | 449 kts | 103° |
| 2026-04-20 21:24 | 33.62145 | -114.93041 | 44947 ft | 454 kts | 103° |
| 2026-04-20 21:24 | 33.61025 | -114.85558 | 44947 ft | 458 kts | 103° |
| 2026-04-20 21:25 | 33.59888 | -114.77993 | 44949 ft | 462 kts | 103° |
| 2026-04-20 21:25 | 33.59085 | -114.70306 | 44948 ft | 467 kts | 98° |
| 2026-04-20 21:26 | 33.58419 | -114.62615 | 44948 ft | 465 kts | 99° |
| 2026-04-20 21:26 | 33.57716 | -114.54905 | 44944 ft | 463 kts | 99° |
| 2026-04-20 21:27 | 33.57034 | -114.47227 | 44939 ft | 462 kts | 99° |
| 2026-04-20 21:27 | 33.56337 | -114.39611 | 44936 ft | 462 kts | 99° |
| 2026-04-20 21:28 | 33.55639 | -114.31926 | 44934 ft | 464 kts | 99° |
| 2026-04-20 21:28 | 33.54927 | -114.24209 | 44937 ft | 466 kts | 99° |
| 2026-04-20 21:29 | 33.54213 | -114.16472 | 44941 ft | 467 kts | 99° |
| 2026-04-20 21:29 | 33.53493 | -114.08754 | 44943 ft | 465 kts | 99° |
| 2026-04-20 21:30 | 33.52772 | -114.01060 | 44937 ft | 463 kts | 99° |
| 2026-04-20 21:30 | 33.52047 | -113.93402 | 44942 ft | 463 kts | 99° |
| 2026-04-20 21:31 | 33.51317 | -113.85723 | 44943 ft | 464 kts | 99° |
| 2026-04-20 21:31 | 33.50579 | -113.78024 | 44943 ft | 466 kts | 99° |
| 2026-04-20 21:32 | 33.49961 | -113.71603 | 44946 ft | 467 kts | 99° |
| 2026-04-20 21:32 | 33.49089 | -113.62607 | 44947 ft | 468 kts | 99° |
| 2026-04-20 21:33 | 33.48335 | -113.54881 | 44945 ft | 466 kts | 99° |
| 2026-04-20 21:33 | 33.47706 | -113.48480 | 44944 ft | 464 kts | 99° |
| 2026-04-20 21:34 | 33.46917 | -113.40818 | 44934 ft | 461 kts | 102° |
| 2026-04-20 21:34 | 33.46094 | -113.37122 | 44924 ft | 458 kts | 114° |
| 2026-04-20 21:34 | 33.44795 | -113.33671 | 44934 ft | 452 kts | 124° |
| 2026-04-20 21:35 | 33.41043 | -113.27760 | 44936 ft | 444 kts | 138° |
| 2026-04-20 21:35 | 33.36917 | -113.22246 | 44933 ft | 445 kts | 137° |
| 2026-04-20 21:36 | 33.32777 | -113.16702 | 44933 ft | 447 kts | 138° |
| 2026-04-20 21:36 | 33.28618 | -113.11160 | 44931 ft | 447 kts | 138° |
| 2026-04-20 21:37 | 33.24484 | -113.05643 | 44924 ft | 444 kts | 138° |
| 2026-04-20 21:37 | 33.20387 | -113.00198 | 44923 ft | 442 kts | 138° |
| 2026-04-20 21:38 | 33.16275 | -112.94733 | 44921 ft | 443 kts | 138° |
| 2026-04-20 21:38 | 33.12137 | -112.89247 | 44921 ft | 445 kts | 138° |
| 2026-04-20 21:39 | 33.07986 | -112.83748 | 44916 ft | 447 kts | 138° |
| 2026-04-20 21:39 | 33.03821 | -112.78239 | 44951 ft | 448 kts | 138° |
| 2026-04-20 21:40 | 32.99653 | -112.72725 | 44964 ft | 448 kts | 137° |
| 2026-04-20 21:40 | 32.97803 | -112.69708 | 44963 ft | 455 kts | 126° |
| 2026-04-20 21:40 | 32.96358 | -112.66335 | 44958 ft | 460 kts | 116° |
| 2026-04-20 21:41 | 32.94856 | -112.58883 | 44953 ft | 467 kts | 98° |
| 2026-04-20 21:41 | 32.94186 | -112.51241 | 44949 ft | 466 kts | 98° |
| 2026-04-20 21:42 | 32.93478 | -112.43559 | 44928 ft | 466 kts | 98° |
| 2026-04-20 21:42 | 32.92787 | -112.35884 | 44927 ft | 466 kts | 98° |
| 2026-04-20 21:43 | 32.92079 | -112.28224 | 44926 ft | 465 kts | 98° |
| 2026-04-20 21:43 | 32.91376 | -112.20574 | 44925 ft | 464 kts | 98° |
| 2026-04-20 21:44 | 32.90664 | -112.12942 | 44938 ft | 464 kts | 98° |
| 2026-04-20 21:44 | 32.89952 | -112.05320 | 44956 ft | 463 kts | 98° |
| 2026-04-20 21:45 | 32.89238 | -111.97759 | 44969 ft | 463 kts | 98° |
| 2026-04-20 21:45 | 32.88422 | -111.90148 | 44977 ft | 463 kts | 105° |
| 2026-04-20 21:46 | 32.86774 | -111.82756 | 44992 ft | 463 kts | 108° |
| 2026-04-20 21:46 | 32.85149 | -111.75341 | 44996 ft | 464 kts | 108° |
| 2026-04-20 21:47 | 32.83482 | -111.67913 | 44988 ft | 465 kts | 108° |
| 2026-04-20 21:47 | 32.81825 | -111.60466 | 44977 ft | 466 kts | 108° |
| 2026-04-20 21:48 | 32.80158 | -111.53040 | 44947 ft | 463 kts | 108° |
| 2026-04-20 21:48 | 32.78501 | -111.45660 | 44954 ft | 461 kts | 108° |
| 2026-04-20 21:49 | 32.76847 | -111.38326 | 44964 ft | 459 kts | 108° |
| 2026-04-20 21:49 | 32.75197 | -111.31028 | 44972 ft | 461 kts | 108° |
| 2026-04-20 21:50 | 32.73524 | -111.23647 | 44978 ft | 463 kts | 108° |
| 2026-04-20 21:50 | 32.71843 | -111.16257 | 44977 ft | 464 kts | 108° |
| 2026-04-20 21:51 | 32.70152 | -111.08844 | 44970 ft | 463 kts | 108° |
| 2026-04-20 21:51 | 32.68472 | -111.01497 | 44970 ft | 459 kts | 108° |
| 2026-04-20 21:52 | 32.66796 | -110.94195 | 44952 ft | 458 kts | 108° |
| 2026-04-20 21:52 | 32.65112 | -110.86874 | 44957 ft | 460 kts | 108° |
| 2026-04-20 21:53 | 32.63419 | -110.79540 | 44966 ft | 461 kts | 108° |
| 2026-04-20 21:53 | 32.61735 | -110.72259 | 44965 ft | 459 kts | 109° |
| 2026-04-20 21:54 | 32.60046 | -110.64986 | 44964 ft | 456 kts | 109° |
| 2026-04-20 21:54 | 32.58356 | -110.57725 | 44962 ft | 457 kts | 109° |
| 2026-04-20 21:55 | 32.56654 | -110.50437 | 44972 ft | 458 kts | 109° |
| 2026-04-20 21:55 | 32.54947 | -110.43145 | 44973 ft | 460 kts | 109° |
| 2026-04-20 21:56 | 32.53241 | -110.35881 | 44970 ft | 461 kts | 109° |
| 2026-04-20 21:56 | 32.51523 | -110.28583 | 44976 ft | 458 kts | 109° |
| 2026-04-20 21:57 | 32.49809 | -110.21325 | 44969 ft | 455 kts | 109° |
| 2026-04-20 21:57 | 32.48099 | -110.14106 | 44959 ft | 454 kts | 109° |
| 2026-04-20 21:58 | 32.46384 | -110.06887 | 44937 ft | 455 kts | 109° |
| 2026-04-20 21:58 | 32.44675 | -109.99706 | 44939 ft | 456 kts | 109° |
| 2026-04-20 21:59 | 32.42945 | -109.92466 | 44927 ft | 458 kts | 109° |
| 2026-04-20 21:59 | 32.41206 | -109.85199 | 44925 ft | 459 kts | 109° |
| 2026-04-20 22:00 | 32.39457 | -109.77919 | 44921 ft | 460 kts | 110° |
| 2026-04-20 22:00 | 32.37707 | -109.70651 | 44921 ft | 458 kts | 110° |
| 2026-04-20 22:01 | 32.35973 | -109.63466 | 44917 ft | 456 kts | 110° |
| 2026-04-20 22:01 | 32.34226 | -109.56255 | 44922 ft | 455 kts | 110° |
| 2026-04-20 22:02 | 32.32483 | -109.49075 | 44919 ft | 453 kts | 110° |
| 2026-04-20 22:02 | 32.30738 | -109.41909 | 44919 ft | 454 kts | 110° |
| 2026-04-20 22:03 | 32.28983 | -109.34717 | 44917 ft | 456 kts | 110° |
| 2026-04-20 22:03 | 32.27228 | -109.27546 | 44923 ft | 457 kts | 110° |
| 2026-04-20 22:04 | 32.25565 | -109.20279 | 44920 ft | 459 kts | 109° |
| 2026-04-20 22:04 | 32.23876 | -109.13004 | 44921 ft | 460 kts | 109° |
| 2026-04-20 22:05 | 32.22219 | -109.05703 | 44924 ft | 460 kts | 109° |
| 2026-04-20 22:05 | 32.20535 | -108.98421 | 44921 ft | 459 kts | 109° |
| 2026-04-20 22:06 | 32.18878 | -108.91209 | 44919 ft | 457 kts | 109° |
| 2026-04-20 22:06 | 32.17205 | -108.83990 | 44922 ft | 455 kts | 109° |
| 2026-04-20 22:07 | 32.15537 | -108.76787 | 44925 ft | 455 kts | 109° |
| 2026-04-20 22:07 | 32.14697 | -108.73178 | 45037 ft | 456 kts | 109° |
| 2026-04-20 22:07 | 32.13856 | -108.69566 | 45037 ft | 457 kts | 109° |
| 2026-04-20 22:08 | 32.12170 | -108.62330 | 45021 ft | 458 kts | 109° |
| 2026-04-20 22:08 | 32.10474 | -108.55081 | 45003 ft | 459 kts | 109° |
| 2026-04-20 22:09 | 32.08777 | -108.47843 | 44974 ft | 461 kts | 109° |
| 2026-04-20 22:09 | 32.07062 | -108.40553 | 44943 ft | 462 kts | 109° |
| 2026-04-20 22:10 | 32.05339 | -108.33244 | 44943 ft | 463 kts | 109° |
| 2026-04-20 22:10 | 32.03604 | -108.25910 | 44944 ft | 465 kts | 109° |
| 2026-04-20 22:11 | 32.01863 | -108.18569 | 44938 ft | 465 kts | 109° |
| 2026-04-20 22:11 | 32.00124 | -108.11251 | 44946 ft | 463 kts | 109° |
| 2026-04-20 22:12 | 31.98385 | -108.03964 | 44942 ft | 460 kts | 110° |
| 2026-04-20 22:12 | 31.96653 | -107.96718 | 44952 ft | 459 kts | 110° |
| 2026-04-20 22:13 | 31.94911 | -107.89458 | 44950 ft | 461 kts | 110° |
| 2026-04-20 22:13 | 31.93162 | -107.82182 | 44957 ft | 462 kts | 110° |
| 2026-04-20 22:14 | 31.91913 | -107.74738 | 44967 ft | 469 kts | 97° |
| 2026-04-20 22:14 | 31.91437 | -107.67064 | 44965 ft | 470 kts | 97° |
| 2026-04-20 22:15 | 31.90919 | -107.59438 | 44959 ft | 470 kts | 97° |
| 2026-04-20 22:15 | 31.90422 | -107.51757 | 44956 ft | 470 kts | 97° |
| 2026-04-20 22:16 | 31.89903 | -107.44103 | 44953 ft | 469 kts | 97° |
| 2026-04-20 22:16 | 31.89391 | -107.36446 | 44959 ft | 469 kts | 97° |
| 2026-04-20 22:17 | 31.88868 | -107.28798 | 44960 ft | 469 kts | 97° |
| 2026-04-20 22:17 | 31.88344 | -107.21139 | 44960 ft | 469 kts | 97° |
| 2026-04-20 22:18 | 31.87813 | -107.13484 | 44959 ft | 469 kts | 97° |
| 2026-04-20 22:18 | 31.87279 | -107.05837 | 44956 ft | 469 kts | 97° |
| 2026-04-20 22:19 | 31.86742 | -106.98227 | 44946 ft | 469 kts | 97° |
| 2026-04-20 22:19 | 31.86200 | -106.90584 | 44950 ft | 469 kts | 97° |
| 2026-04-20 22:19 | 31.85926 | -106.86757 | 45089 ft | 469 kts | 97° |
| 2026-04-20 22:20 | 31.85652 | -106.82940 | 45107 ft | 469 kts | 97° |
| 2026-04-20 22:20 | 31.85100 | -106.75306 | 45120 ft | 468 kts | 97° |
| 2026-04-20 22:21 | 31.84637 | -106.68956 | 45120 ft | 468 kts | 97° |
| 2026-04-20 22:21 | 31.83985 | -106.60081 | 45117 ft | 467 kts | 97° |
| 2026-04-20 22:22 | 31.83421 | -106.52463 | 45085 ft | 467 kts | 97° |
| 2026-04-20 22:22 | 31.82948 | -106.46123 | 45103 ft | 467 kts | 97° |
| 2026-04-20 22:23 | 31.82376 | -106.38515 | 45102 ft | 467 kts | 97° |
| 2026-04-20 22:23 | 31.81799 | -106.30912 | 45102 ft | 465 kts | 97° |
| 2026-04-20 22:24 | 31.80449 | -106.23543 | 45088 ft | 460 kts | 110° |
| 2026-04-20 22:24 | 31.78659 | -106.16318 | 45054 ft | 460 kts | 109° |
| 2026-04-20 22:25 | 31.76893 | -106.09147 | 45019 ft | 459 kts | 109° |
| 2026-04-20 22:25 | 31.75102 | -106.01956 | 44996 ft | 459 kts | 109° |
| 2026-04-20 22:26 | 31.73317 | -105.94758 | 44969 ft | 458 kts | 109° |
| 2026-04-20 22:26 | 31.71527 | -105.87597 | 44974 ft | 456 kts | 109° |
| 2026-04-20 22:27 | 31.68844 | -105.76868 | 44984 ft | 456 kts | 110° |
| 2026-04-20 22:27 | 31.67047 | -105.69712 | 44985 ft | 458 kts | 109° |
| 2026-04-20 22:28 | 31.65240 | -105.62533 | 44988 ft | 459 kts | 110° |
| 2026-04-20 22:28 | 31.63438 | -105.55387 | 44987 ft | 454 kts | 110° |
| 2026-04-20 22:29 | 31.61642 | -105.48298 | 44999 ft | 454 kts | 110° |
| 2026-04-20 22:29 | 31.59852 | -105.41237 | 44998 ft | 455 kts | 110° |
| 2026-04-20 22:30 | 31.58042 | -105.34120 | 45003 ft | 456 kts | 110° |
| 2026-04-20 22:30 | 31.56221 | -105.26981 | 45011 ft | 457 kts | 110° |
| 2026-04-20 22:31 | 31.54391 | -105.19824 | 45021 ft | 458 kts | 110° |
| 2026-04-20 22:31 | 31.52560 | -105.12681 | 45019 ft | 456 kts | 110° |
| 2026-04-20 22:32 | 31.50734 | -105.05576 | 45036 ft | 454 kts | 110° |
| 2026-04-20 22:32 | 31.48915 | -104.98516 | 45033 ft | 452 kts | 110° |
| 2026-04-20 22:33 | 31.47104 | -104.91508 | 45039 ft | 452 kts | 110° |
| 2026-04-20 22:33 | 31.45279 | -104.84459 | 45038 ft | 452 kts | 110° |
| 2026-04-20 22:34 | 31.43448 | -104.77407 | 45042 ft | 454 kts | 110° |
| 2026-04-20 22:34 | 31.41606 | -104.70330 | 45048 ft | 455 kts | 110° |
| 2026-04-20 22:35 | 31.39757 | -104.63239 | 45051 ft | 455 kts | 110° |
| 2026-04-20 22:35 | 31.37911 | -104.56182 | 45050 ft | 452 kts | 110° |
| 2026-04-20 22:36 | 31.36070 | -104.49162 | 45057 ft | 450 kts | 110° |
| 2026-04-20 22:36 | 31.34223 | -104.42137 | 45056 ft | 452 kts | 110° |
| 2026-04-20 22:37 | 31.32368 | -104.35096 | 45067 ft | 453 kts | 110° |
| 2026-04-20 22:37 | 31.30516 | -104.28084 | 45067 ft | 455 kts | 110° |
| 2026-04-20 22:38 | 31.28641 | -104.21003 | 45067 ft | 456 kts | 111° |
| 2026-04-20 22:38 | 31.26776 | -104.13971 | 45076 ft | 449 kts | 111° |
| 2026-04-20 22:39 | 31.24921 | -104.07009 | 45077 ft | 449 kts | 111° |
| 2026-04-20 22:39 | 31.23058 | -104.00021 | 45077 ft | 450 kts | 111° |
| 2026-04-20 22:40 | 31.21199 | -103.93070 | 45080 ft | 451 kts | 111° |
| 2026-04-20 22:40 | 31.19320 | -103.86058 | 45080 ft | 452 kts | 111° |
| 2026-04-20 22:41 | 31.17437 | -103.79046 | 45090 ft | 449 kts | 111° |
| 2026-04-20 22:41 | 31.15573 | -103.72129 | 45096 ft | 445 kts | 111° |
| 2026-04-20 22:42 | 31.13717 | -103.65257 | 45096 ft | 447 kts | 111° |
| 2026-04-20 22:42 | 31.11841 | -103.58323 | 45094 ft | 448 kts | 111° |
| 2026-04-20 22:43 | 31.09958 | -103.51383 | 45095 ft | 449 kts | 111° |
| 2026-04-20 22:43 | 31.08069 | -103.44431 | 45084 ft | 450 kts | 111° |
| 2026-04-20 22:44 | 31.06172 | -103.37474 | 45075 ft | 450 kts | 111° |
| 2026-04-20 22:44 | 31.04271 | -103.30513 | 45076 ft | 450 kts | 111° |
| 2026-04-20 22:45 | 31.02366 | -103.23558 | 45076 ft | 450 kts | 111° |
| 2026-04-20 22:45 | 31.00463 | -103.16623 | 45092 ft | 449 kts | 111° |
| 2026-04-20 22:46 | 30.98555 | -103.09686 | 45095 ft | 448 kts | 111° |
| 2026-04-20 22:46 | 30.96646 | -103.02765 | 45110 ft | 448 kts | 111° |
| 2026-04-20 22:47 | 30.95027 | -102.95797 | 45103 ft | 453 kts | 101° |
| 2026-04-20 22:47 | 30.94315 | -102.88495 | 45135 ft | 453 kts | 99° |
| 2026-04-20 22:48 | 30.93564 | -102.81207 | 45196 ft | 453 kts | 99° |
| 2026-04-20 22:48 | 30.92836 | -102.73914 | 45186 ft | 453 kts | 99° |
| 2026-04-20 22:49 | 30.92087 | -102.66612 | 45177 ft | 455 kts | 99° |
| 2026-04-20 22:49 | 30.91343 | -102.59314 | 45177 ft | 456 kts | 99° |
| 2026-04-20 22:50 | 30.90585 | -102.51965 | 45172 ft | 457 kts | 99° |
| 2026-04-20 22:50 | 30.89825 | -102.44613 | 45183 ft | 457 kts | 99° |
| 2026-04-20 22:51 | 30.89061 | -102.37275 | 45183 ft | 455 kts | 100° |
| 2026-04-20 22:51 | 30.88297 | -102.29977 | 45193 ft | 454 kts | 100° |
| 2026-04-20 22:52 | 30.87535 | -102.22739 | 45193 ft | 453 kts | 100° |
| 2026-04-20 22:52 | 30.86761 | -102.15429 | 45202 ft | 455 kts | 100° |
| 2026-04-20 22:53 | 30.85982 | -102.08102 | 45203 ft | 457 kts | 100° |
| 2026-04-20 22:53 | 30.85196 | -102.00756 | 45205 ft | 457 kts | 100° |
| 2026-04-20 22:54 | 30.84410 | -101.93441 | 45210 ft | 453 kts | 100° |
| 2026-04-20 22:54 | 30.83622 | -101.86169 | 45214 ft | 453 kts | 100° |
| 2026-04-20 22:55 | 30.82837 | -101.78939 | 45218 ft | 455 kts | 100° |
| 2026-04-20 22:55 | 30.82036 | -101.71613 | 45225 ft | 456 kts | 100° |
| 2026-04-20 22:56 | 30.81231 | -101.64282 | 45219 ft | 458 kts | 100° |
| 2026-04-20 22:56 | 30.80418 | -101.56924 | 45222 ft | 459 kts | 100° |
| 2026-04-20 22:57 | 30.79599 | -101.49547 | 45223 ft | 459 kts | 100° |
| 2026-04-20 22:57 | 30.78778 | -101.42198 | 45224 ft | 457 kts | 100° |
| 2026-04-20 22:58 | 30.77958 | -101.34889 | 45223 ft | 455 kts | 100° |
| 2026-04-20 22:58 | 30.77134 | -101.27587 | 45228 ft | 456 kts | 101° |
| 2026-04-20 22:59 | 30.76304 | -101.20262 | 45257 ft | 458 kts | 101° |
| 2026-04-20 22:59 | 30.75466 | -101.12908 | 45248 ft | 459 kts | 100° |
| 2026-04-20 23:00 | 30.74627 | -101.05582 | 45246 ft | 460 kts | 100° |
| 2026-04-20 23:00 | 30.73776 | -100.98194 | 45241 ft | 461 kts | 100° |
| 2026-04-20 23:01 | 30.72923 | -100.90814 | 45236 ft | 459 kts | 100° |
| 2026-04-20 23:01 | 30.72071 | -100.83488 | 45254 ft | 456 kts | 101° |
| 2026-04-20 23:02 | 30.71216 | -100.76171 | 45260 ft | 458 kts | 101° |
| 2026-04-20 23:02 | 30.70354 | -100.68834 | 45266 ft | 459 kts | 101° |
| 2026-04-20 23:03 | 30.69484 | -100.61461 | 45276 ft | 461 kts | 101° |
| 2026-04-20 23:03 | 30.68609 | -100.54076 | 45274 ft | 462 kts | 101° |
| 2026-04-20 23:04 | 30.67732 | -100.46717 | 45267 ft | 463 kts | 101° |
| 2026-04-20 23:04 | 30.66845 | -100.39308 | 45253 ft | 462 kts | 101° |
| 2026-04-20 23:05 | 30.65959 | -100.31947 | 45232 ft | 459 kts | 101° |
| 2026-04-20 23:05 | 30.65071 | -100.24606 | 45207 ft | 459 kts | 101° |
| 2026-04-20 23:06 | 30.64177 | -100.17253 | 45218 ft | 461 kts | 101° |
| 2026-04-20 23:06 | 30.63275 | -100.09868 | 45226 ft | 463 kts | 101° |
| 2026-04-20 23:07 | 30.62372 | -100.02507 | 45239 ft | 464 kts | 101° |
| 2026-04-20 23:07 | 30.61455 | -99.95067 | 45244 ft | 466 kts | 101° |
| 2026-04-20 23:08 | 30.60535 | -99.87636 | 45247 ft | 463 kts | 101° |
| 2026-04-20 23:08 | 30.59615 | -99.80244 | 45251 ft | 461 kts | 101° |
| 2026-04-20 23:09 | 30.58844 | -99.74126 | 45246 ft | 459 kts | 101° |
| 2026-04-20 23:09 | 30.57767 | -99.65603 | 45247 ft | 461 kts | 101° |
| 2026-04-20 23:10 | 30.56831 | -99.58235 | 45238 ft | 462 kts | 101° |
| 2026-04-20 23:10 | 30.56040 | -99.52034 | 45235 ft | 464 kts | 101° |
| 2026-04-20 23:11 | 30.55097 | -99.44675 | 45228 ft | 465 kts | 101° |
| 2026-04-20 23:11 | 30.54141 | -99.37247 | 45227 ft | 464 kts | 101° |
| 2026-04-20 23:12 | 30.53187 | -99.29861 | 45224 ft | 462 kts | 101° |
| 2026-04-20 23:12 | 30.52232 | -99.22513 | 45229 ft | 460 kts | 101° |
| 2026-04-20 23:13 | 30.51271 | -99.15151 | 45230 ft | 462 kts | 101° |
| 2026-04-20 23:13 | 30.50304 | -99.07769 | 45232 ft | 463 kts | 101° |
| 2026-04-20 23:14 | 30.49329 | -99.00358 | 45240 ft | 466 kts | 101° |
| 2026-04-20 23:14 | 30.48353 | -98.92980 | 45251 ft | 465 kts | 101° |
| 2026-04-20 23:15 | 30.47372 | -98.85592 | 45250 ft | 462 kts | 101° |
| 2026-04-20 23:15 | 30.46393 | -98.78254 | 45256 ft | 461 kts | 101° |
| 2026-04-20 23:16 | 30.45407 | -98.70896 | 45256 ft | 462 kts | 101° |
| 2026-04-20 23:16 | 30.44414 | -98.63518 | 45262 ft | 464 kts | 101° |
| 2026-04-20 23:17 | 30.43410 | -98.56093 | 45262 ft | 467 kts | 101° |
| 2026-04-20 23:17 | 30.42402 | -98.48666 | 45273 ft | 466 kts | 101° |
| 2026-04-20 23:18 | 30.41392 | -98.41261 | 45267 ft | 463 kts | 101° |
| 2026-04-20 23:18 | 30.40392 | -98.33955 | 45269 ft | 462 kts | 101° |
| 2026-04-20 23:19 | 30.39377 | -98.26584 | 45270 ft | 464 kts | 101° |
| 2026-04-20 23:19 | 30.38354 | -98.19178 | 45276 ft | 467 kts | 101° |
| 2026-04-20 23:20 | 30.37322 | -98.11734 | 45299 ft | 469 kts | 101° |
| 2026-04-20 23:20 | 30.36286 | -98.04294 | 45300 ft | 466 kts | 101° |
| 2026-04-20 23:21 | 30.35251 | -97.96904 | 45307 ft | 464 kts | 101° |
| 2026-04-20 23:21 | 30.34219 | -97.89559 | 45309 ft | 467 kts | 101° |
| 2026-04-20 23:22 | 30.33166 | -97.82102 | 45312 ft | 471 kts | 101° |
| 2026-04-20 23:22 | 30.32111 | -97.74650 | 45270 ft | 466 kts | 101° |
| 2026-04-20 23:23 | 30.31058 | -97.67254 | 45257 ft | 466 kts | 101° |
| 2026-04-20 23:23 | 30.29998 | -97.59835 | 45255 ft | 468 kts | 101° |
| 2026-04-20 23:24 | 30.28928 | -97.52380 | 45263 ft | 470 kts | 101° |
| 2026-04-20 23:24 | 30.27858 | -97.44947 | 45288 ft | 472 kts | 101° |
| 2026-04-20 23:25 | 30.26774 | -97.37461 | 45282 ft | 470 kts | 101° |
| 2026-04-20 23:25 | 30.25695 | -97.30029 | 45281 ft | 467 kts | 101° |
| 2026-04-20 23:26 | 30.24610 | -97.22603 | 45269 ft | 469 kts | 101° |
| 2026-04-20 23:26 | 30.23517 | -97.15136 | 45271 ft | 472 kts | 101° |
| 2026-04-20 23:27 | 30.22416 | -97.07649 | 45312 ft | 471 kts | 101° |
| 2026-04-20 23:27 | 30.21313 | -97.00181 | 45314 ft | 470 kts | 101° |
| 2026-04-20 23:28 | 30.20215 | -96.92786 | 45302 ft | 467 kts | 101° |
| 2026-04-20 23:28 | 30.19112 | -96.85379 | 45298 ft | 468 kts | 101° |
| 2026-04-20 23:29 | 30.18002 | -96.77954 | 45271 ft | 470 kts | 101° |
| 2026-04-20 23:29 | 30.16883 | -96.70501 | 45243 ft | 471 kts | 101° |
| 2026-04-20 23:30 | 30.15757 | -96.63029 | 45185 ft | 473 kts | 101° |
| 2026-04-20 23:30 | 30.14632 | -96.55598 | 45153 ft | 471 kts | 101° |
| 2026-04-20 23:31 | 30.13502 | -96.48158 | 45119 ft | 469 kts | 101° |
| 2026-04-20 23:31 | 30.12370 | -96.40734 | 45123 ft | 469 kts | 101° |
| 2026-04-20 23:32 | 30.11230 | -96.33298 | 45112 ft | 471 kts | 101° |
| 2026-04-20 23:32 | 30.10084 | -96.25836 | 45113 ft | 472 kts | 101° |
| 2026-04-20 23:33 | 30.08929 | -96.18356 | 45099 ft | 473 kts | 101° |
| 2026-04-20 23:33 | 30.07768 | -96.10860 | 45122 ft | 474 kts | 101° |
| 2026-04-20 23:34 | 30.06612 | -96.03421 | 45165 ft | 473 kts | 101° |
| 2026-04-20 23:34 | 30.05440 | -95.95917 | 45183 ft | 471 kts | 101° |
| 2026-04-20 23:35 | 30.03702 | -95.84838 | 45225 ft | 470 kts | 101° |
| 2026-04-20 23:36 | 30.02530 | -95.77407 | 45254 ft | 471 kts | 101° |
| 2026-04-20 23:36 | 30.01352 | -95.69961 | 45252 ft | 473 kts | 101° |
| 2026-04-20 23:37 | 30.00166 | -95.62488 | 45276 ft | 474 kts | 101° |
| 2026-04-20 23:37 | 29.98973 | -95.55010 | 45277 ft | 473 kts | 101° |
| 2026-04-20 23:38 | 29.97783 | -95.47574 | 45277 ft | 470 kts | 101° |
| 2026-04-20 23:38 | 29.96592 | -95.40159 | 45275 ft | 469 kts | 101° |
| 2026-04-20 23:39 | 29.95457 | -95.32771 | 45284 ft | 471 kts | 98° |
| 2026-04-20 23:39 | 29.94502 | -95.25284 | 45283 ft | 472 kts | 99° |
| 2026-04-20 23:40 | 29.93525 | -95.17791 | 45281 ft | 473 kts | 98° |
| 2026-04-20 23:40 | 29.92553 | -95.10267 | 45278 ft | 475 kts | 98° |
| 2026-04-20 23:41 | 29.91567 | -95.02740 | 45277 ft | 474 kts | 98° |
| 2026-04-20 23:41 | 29.90594 | -94.95297 | 45270 ft | 471 kts | 99° |
| 2026-04-20 23:42 | 29.89611 | -94.87846 | 45265 ft | 469 kts | 98° |
| 2026-04-20 23:42 | 29.88631 | -94.80431 | 45271 ft | 467 kts | 98° |
| 2026-04-20 23:43 | 29.87646 | -94.73017 | 45269 ft | 469 kts | 98° |
| 2026-04-20 23:43 | 29.86653 | -94.65573 | 45269 ft | 470 kts | 98° |
| 2026-04-20 23:44 | 29.85654 | -94.58121 | 45265 ft | 471 kts | 98° |
| 2026-04-20 23:44 | 29.84656 | -94.50706 | 45272 ft | 470 kts | 98° |
| 2026-04-20 23:45 | 29.83651 | -94.43276 | 45272 ft | 468 kts | 98° |
| 2026-04-20 23:45 | 29.82648 | -94.35889 | 45274 ft | 466 kts | 98° |
| 2026-04-20 23:46 | 29.81640 | -94.28500 | 45275 ft | 468 kts | 98° |
| 2026-04-20 23:46 | 29.80625 | -94.21087 | 45279 ft | 469 kts | 98° |
| 2026-04-20 23:47 | 29.79603 | -94.13664 | 45279 ft | 470 kts | 98° |
| 2026-04-20 23:47 | 29.78580 | -94.06259 | 45281 ft | 471 kts | 98° |
| 2026-04-20 23:48 | 29.77546 | -93.98809 | 45280 ft | 472 kts | 98° |
| 2026-04-20 23:48 | 29.76505 | -93.91332 | 45273 ft | 472 kts | 98° |
| 2026-04-20 23:49 | 29.75469 | -93.83936 | 45268 ft | 465 kts | 98° |
| 2026-04-20 23:49 | 29.74435 | -93.76571 | 45269 ft | 466 kts | 98° |
| 2026-04-20 23:50 | 29.73399 | -93.69227 | 45271 ft | 468 kts | 98° |
| 2026-04-20 23:50 | 29.72350 | -93.61826 | 45269 ft | 469 kts | 98° |
| 2026-04-20 23:51 | 29.71295 | -93.54411 | 45270 ft | 470 kts | 98° |
| 2026-04-20 23:51 | 29.70233 | -93.46979 | 45270 ft | 471 kts | 99° |
| 2026-04-20 23:52 | 29.69167 | -93.39543 | 45275 ft | 470 kts | 99° |
| 2026-04-20 23:52 | 29.68101 | -93.32143 | 45273 ft | 467 kts | 99° |
| 2026-04-20 23:53 | 29.67037 | -93.24786 | 45267 ft | 466 kts | 99° |
| 2026-04-20 23:53 | 29.65968 | -93.17420 | 45268 ft | 467 kts | 99° |
| 2026-04-20 23:54 | 29.64899 | -93.10088 | 45267 ft | 468 kts | 99° |
| 2026-04-20 23:54 | 29.63816 | -93.02689 | 45268 ft | 470 kts | 99° |
| 2026-04-20 23:55 | 29.62726 | -92.95275 | 45268 ft | 471 kts | 99° |
| 2026-04-20 23:55 | 29.61630 | -92.87846 | 45260 ft | 472 kts | 99° |
| 2026-04-20 23:56 | 29.60527 | -92.80409 | 45258 ft | 473 kts | 99° |
| 2026-04-20 23:56 | 29.59419 | -92.72962 | 45258 ft | 471 kts | 99° |
| 2026-04-20 23:57 | 29.58501 | -92.66820 | 45262 ft | 469 kts | 99° |
| 2026-04-20 23:57 | 29.57396 | -92.59442 | 45258 ft | 469 kts | 99° |
| 2026-04-20 23:58 | 29.56282 | -92.52044 | 45254 ft | 470 kts | 99° |
| 2026-04-20 23:58 | 29.55162 | -92.44626 | 45254 ft | 472 kts | 99° |
| 2026-04-20 23:59 | 29.54034 | -92.37193 | 45252 ft | 473 kts | 99° |
| 2026-04-20 23:59 | 29.52901 | -92.29747 | 45251 ft | 474 kts | 99° |
| 2026-04-21 00:00 | 29.51761 | -92.22289 | 45230 ft | 474 kts | 99° |
| 2026-04-21 00:00 | 29.50622 | -92.14872 | 45254 ft | 470 kts | 99° |
| 2026-04-21 00:01 | 29.49490 | -92.07520 | 45255 ft | 471 kts | 99° |
| 2026-04-21 00:01 | 29.48341 | -92.00092 | 45255 ft | 472 kts | 99° |
| 2026-04-21 00:02 | 29.47187 | -91.92654 | 45258 ft | 473 kts | 99° |
| 2026-04-21 00:02 | 29.46026 | -91.85205 | 45256 ft | 475 kts | 99° |
| 2026-04-21 00:03 | 29.44858 | -91.77734 | 45255 ft | 476 kts | 99° |
| 2026-04-21 00:03 | 29.43684 | -91.70258 | 45253 ft | 476 kts | 99° |
| 2026-04-21 00:04 | 29.42515 | -91.62839 | 45256 ft | 474 kts | 99° |
| 2026-04-21 00:04 | 29.41341 | -91.55413 | 45254 ft | 472 kts | 99° |
| 2026-04-21 00:05 | 29.40166 | -91.48016 | 45257 ft | 471 kts | 100° |
| 2026-04-21 00:05 | 29.38988 | -91.40622 | 45255 ft | 472 kts | 100° |
| 2026-04-21 00:06 | 29.37802 | -91.33207 | 45263 ft | 473 kts | 100° |
| 2026-04-21 00:06 | 29.36609 | -91.25772 | 45263 ft | 474 kts | 100° |
| 2026-04-21 00:07 | 29.35409 | -91.18328 | 45267 ft | 475 kts | 100° |
| 2026-04-21 00:07 | 29.34203 | -91.10871 | 45267 ft | 476 kts | 99° |
| 2026-04-21 00:08 | 29.33003 | -91.03477 | 45270 ft | 473 kts | 100° |
| 2026-04-21 00:08 | 29.31800 | -90.96089 | 45271 ft | 471 kts | 100° |
| 2026-04-21 00:09 | 29.30590 | -90.88687 | 45271 ft | 472 kts | 100° |
| 2026-04-21 00:09 | 29.29373 | -90.81275 | 45267 ft | 474 kts | 100° |
| 2026-04-21 00:10 | 29.28151 | -90.73853 | 45273 ft | 475 kts | 100° |
| 2026-04-21 00:10 | 29.26922 | -90.66413 | 45273 ft | 476 kts | 100° |
| 2026-04-21 00:11 | 29.25686 | -90.58962 | 45281 ft | 477 kts | 100° |
| 2026-04-21 00:11 | 29.24451 | -90.51544 | 45268 ft | 477 kts | 100° |
| 2026-04-21 00:12 | 29.23206 | -90.44089 | 45270 ft | 475 kts | 100° |
| 2026-04-21 00:12 | 29.21961 | -90.36664 | 45280 ft | 474 kts | 100° |
| 2026-04-21 00:13 | 29.20714 | -90.29248 | 45282 ft | 475 kts | 100° |
| 2026-04-21 00:13 | 29.19457 | -90.21804 | 45281 ft | 476 kts | 100° |
| 2026-04-21 00:14 | 29.18203 | -90.14403 | 45273 ft | 477 kts | 100° |
| 2026-04-21 00:14 | 29.16323 | -90.07143 | 45263 ft | 477 kts | 114° |
| 2026-04-21 00:15 | 29.13689 | -90.00159 | 45259 ft | 478 kts | 114° |
| 2026-04-21 00:15 | 29.11084 | -89.93140 | 45266 ft | 479 kts | 114° |
| 2026-04-21 00:16 | 29.08446 | -89.86135 | 45261 ft | 480 kts | 114° |
| 2026-04-21 00:16 | 29.05820 | -89.79115 | 45262 ft | 481 kts | 114° |
| 2026-04-21 00:17 | 29.03170 | -89.72086 | 45268 ft | 482 kts | 114° |
| 2026-04-21 00:17 | 29.00538 | -89.65089 | 45265 ft | 482 kts | 114° |
| 2026-04-21 00:18 | 28.97886 | -89.58072 | 45265 ft | 480 kts | 114° |
| 2026-04-21 00:18 | 28.95243 | -89.51081 | 45257 ft | 477 kts | 114° |
| 2026-04-21 00:19 | 28.92608 | -89.44130 | 45262 ft | 476 kts | 114° |
| 2026-04-21 00:19 | 28.89972 | -89.37184 | 45262 ft | 477 kts | 114° |
| 2026-04-21 00:20 | 28.87327 | -89.30232 | 45254 ft | 478 kts | 114° |
| 2026-04-21 00:20 | 28.84689 | -89.23308 | 45264 ft | 479 kts | 114° |
| 2026-04-21 00:21 | 28.82026 | -89.16334 | 45264 ft | 480 kts | 114° |
| 2026-04-21 00:21 | 28.79353 | -89.09345 | 45264 ft | 481 kts | 114° |
| 2026-04-21 00:22 | 28.76669 | -89.02340 | 45264 ft | 482 kts | 114° |
| 2026-04-21 00:22 | 28.73998 | -88.95384 | 45264 ft | 482 kts | 114° |
| 2026-04-21 00:23 | 28.71303 | -88.88377 | 45262 ft | 483 kts | 114° |
| 2026-04-21 00:23 | 28.68603 | -88.81368 | 45262 ft | 483 kts | 114° |
| 2026-04-21 00:24 | 28.65902 | -88.74373 | 45264 ft | 481 kts | 114° |
| 2026-04-21 00:24 | 28.63214 | -88.67424 | 45253 ft | 478 kts | 115° |
| 2026-04-21 00:25 | 28.60536 | -88.60512 | 45253 ft | 476 kts | 115° |
| 2026-04-21 00:25 | 28.57872 | -88.53650 | 45253 ft | 477 kts | 115° |
| 2026-04-21 00:26 | 28.55181 | -88.46728 | 45260 ft | 478 kts | 115° |
| 2026-04-21 00:26 | 28.52484 | -88.39805 | 45254 ft | 479 kts | 115° |
| 2026-04-21 00:27 | 28.49776 | -88.32867 | 45254 ft | 480 kts | 115° |
| 2026-04-21 00:27 | 28.47058 | -88.25915 | 45255 ft | 481 kts | 115° |
| 2026-04-21 00:28 | 28.44334 | -88.18962 | 45255 ft | 482 kts | 115° |
| 2026-04-21 00:28 | 28.41622 | -88.12050 | 45255 ft | 482 kts | 115° |
| 2026-04-21 00:29 | 28.38887 | -88.05094 | 45250 ft | 481 kts | 115° |
| 2026-04-21 00:29 | 28.36647 | -87.97934 | 45243 ft | 480 kts | 108° |
| 2026-04-21 00:30 | 28.34582 | -87.90737 | 45245 ft | 477 kts | 109° |
| 2026-04-21 00:30 | 28.32501 | -87.83567 | 45244 ft | 478 kts | 108° |
| 2026-04-21 00:31 | 28.30430 | -87.76386 | 45248 ft | 479 kts | 109° |
| 2026-04-21 00:31 | 28.28350 | -87.69233 | 45252 ft | 480 kts | 109° |
| 2026-04-21 00:32 | 28.26260 | -87.62032 | 45251 ft | 481 kts | 109° |
| 2026-04-21 00:32 | 28.24156 | -87.54819 | 45252 ft | 482 kts | 109° |
| 2026-04-21 00:33 | 28.22049 | -87.47596 | 45253 ft | 483 kts | 109° |
| 2026-04-21 00:33 | 28.19929 | -87.40359 | 45253 ft | 483 kts | 109° |
| 2026-04-21 00:34 | 28.17806 | -87.33115 | 45256 ft | 484 kts | 109° |
| 2026-04-21 00:34 | 28.15690 | -87.25919 | 45251 ft | 485 kts | 109° |
| 2026-04-21 00:35 | 28.13554 | -87.18666 | 45248 ft | 485 kts | 109° |
| 2026-04-21 00:35 | 28.11411 | -87.11409 | 45248 ft | 486 kts | 109° |
| 2026-04-21 00:36 | 28.09259 | -87.04135 | 45245 ft | 485 kts | 109° |
| 2026-04-21 00:36 | 28.07131 | -86.96956 | 45245 ft | 482 kts | 109° |
| 2026-04-21 00:37 | 28.04995 | -86.89772 | 45249 ft | 481 kts | 109° |
| 2026-04-21 00:37 | 28.02853 | -86.82576 | 45230 ft | 482 kts | 109° |
| 2026-04-21 00:38 | 28.00706 | -86.75383 | 45235 ft | 482 kts | 109° |
| 2026-04-21 00:38 | 27.98630 | -86.68154 | 45235 ft | 483 kts | 108° |
| 2026-04-21 00:39 | 27.96537 | -86.60925 | 45232 ft | 483 kts | 109° |
| 2026-04-21 00:39 | 27.94437 | -86.53698 | 45236 ft | 484 kts | 109° |
| 2026-04-21 00:40 | 27.92351 | -86.46506 | 45238 ft | 484 kts | 109° |
| 2026-04-21 00:40 | 27.90238 | -86.39269 | 45239 ft | 485 kts | 109° |
| 2026-04-21 00:41 | 27.88127 | -86.32027 | 45236 ft | 485 kts | 109° |
| 2026-04-21 00:41 | 27.86004 | -86.24780 | 45236 ft | 486 kts | 109° |
| 2026-04-21 00:42 | 27.83882 | -86.17538 | 45247 ft | 486 kts | 109° |
| 2026-04-21 00:42 | 27.81749 | -86.10285 | 45241 ft | 486 kts | 109° |
| 2026-04-21 00:43 | 27.79611 | -86.03022 | 45238 ft | 487 kts | 109° |
| 2026-04-21 00:43 | 27.77469 | -85.95766 | 45233 ft | 487 kts | 109° |
| 2026-04-21 00:44 | 27.75320 | -85.88500 | 45236 ft | 488 kts | 109° |
| 2026-04-21 00:44 | 27.73178 | -85.81275 | 45236 ft | 488 kts | 109° |
| 2026-04-21 00:45 | 27.69936 | -85.70368 | 45231 ft | 489 kts | 109° |
| 2026-04-21 00:45 | 27.67770 | -85.63099 | 45231 ft | 489 kts | 109° |
| 2026-04-21 00:46 | 27.65595 | -85.55817 | 45231 ft | 489 kts | 109° |
| 2026-04-21 00:46 | 27.63419 | -85.48545 | 45229 ft | 489 kts | 109° |
| 2026-04-21 00:47 | 27.61248 | -85.41310 | 45223 ft | 490 kts | 109° |
| 2026-04-21 00:47 | 27.59113 | -85.33961 | 45215 ft | 490 kts | 104° |
| 2026-04-21 00:48 | 27.57813 | -85.26463 | 45212 ft | 491 kts | 101° |
| 2026-04-21 00:48 | 27.56482 | -85.18913 | 45212 ft | 491 kts | 101° |
| 2026-04-21 00:49 | 27.55391 | -85.12627 | 45212 ft | 491 kts | 101° |
| 2026-04-21 00:49 | 27.54070 | -85.05070 | 45210 ft | 491 kts | 101° |
| 2026-04-21 00:50 | 27.52739 | -84.97509 | 45220 ft | 492 kts | 101° |
| 2026-04-21 00:50 | 27.51407 | -84.89935 | 45217 ft | 492 kts | 101° |
| 2026-04-21 00:51 | 27.50067 | -84.82368 | 45217 ft | 493 kts | 101° |
| 2026-04-21 00:51 | 27.48724 | -84.74789 | 45209 ft | 493 kts | 101° |
| 2026-04-21 00:52 | 27.47384 | -84.67265 | 45206 ft | 493 kts | 101° |
| 2026-04-21 00:52 | 27.46030 | -84.59677 | 45209 ft | 494 kts | 101° |
| 2026-04-21 00:53 | 27.44671 | -84.52094 | 45212 ft | 494 kts | 101° |
| 2026-04-21 00:53 | 27.43307 | -84.44504 | 45210 ft | 495 kts | 101° |
| 2026-04-21 00:54 | 27.41937 | -84.36908 | 45210 ft | 495 kts | 101° |
| 2026-04-21 00:54 | 27.40563 | -84.29316 | 45207 ft | 495 kts | 101° |
| 2026-04-21 00:55 | 27.39183 | -84.21716 | 45203 ft | 496 kts | 101° |
| 2026-04-21 00:55 | 27.37797 | -84.14106 | 45201 ft | 496 kts | 101° |
| 2026-04-21 00:56 | 27.36416 | -84.06545 | 45201 ft | 496 kts | 101° |
| 2026-04-21 00:56 | 27.35022 | -83.98939 | 45196 ft | 497 kts | 101° |
| 2026-04-21 00:57 | 27.33620 | -83.91321 | 45174 ft | 496 kts | 101° |
| 2026-04-21 00:57 | 27.32219 | -83.83723 | 45180 ft | 494 kts | 101° |
| 2026-04-21 00:58 | 27.30821 | -83.76171 | 45180 ft | 494 kts | 101° |
| 2026-04-21 00:58 | 27.29418 | -83.68610 | 45180 ft | 494 kts | 101° |
| 2026-04-21 00:59 | 27.28018 | -83.61094 | 45180 ft | 495 kts | 101° |
| 2026-04-21 00:59 | 27.26602 | -83.53515 | 45175 ft | 495 kts | 101° |
| 2026-04-21 01:00 | 27.25183 | -83.45940 | 45184 ft | 495 kts | 101° |
| 2026-04-21 01:00 | 27.23758 | -83.38361 | 45184 ft | 496 kts | 101° |
| 2026-04-21 01:01 | 27.22328 | -83.30777 | 45185 ft | 496 kts | 101° |
| 2026-04-21 01:01 | 27.20891 | -83.23180 | 45185 ft | 496 kts | 101° |
| 2026-04-21 01:02 | 27.19451 | -83.15596 | 45191 ft | 497 kts | 101° |
| 2026-04-21 01:02 | 27.18014 | -83.08043 | 45179 ft | 497 kts | 101° |
| 2026-04-21 01:03 | 27.16561 | -83.00438 | 45171 ft | 497 kts | 101° |
| 2026-04-21 01:03 | 27.15106 | -82.92839 | 45171 ft | 498 kts | 101° |
| 2026-04-21 01:04 | 27.13491 | -82.85280 | 45156 ft | 498 kts | 109° |
| 2026-04-21 01:04 | 27.12099 | -82.81734 | 45156 ft | 497 kts | 120° |
| 2026-04-21 01:04 | 27.10318 | -82.78406 | 45146 ft | 496 kts | 124° |
| 2026-04-21 01:05 | 27.08495 | -82.75121 | 44567 ft | 508 kts | 124° |
| 2026-04-21 01:05 | 27.06631 | -82.71724 | 43884 ft | 513 kts | 123° |
| 2026-04-21 01:05 | 27.04771 | -82.68305 | 43209 ft | 511 kts | 124° |
| 2026-04-21 01:05 | 27.02911 | -82.64917 | 42539 ft | 507 kts | 124° |
| 2026-04-21 01:06 | 27.01056 | -82.61565 | 41882 ft | 504 kts | 125° |
| 2026-04-21 01:06 | 26.99215 | -82.58229 | 41216 ft | 502 kts | 125° |
| 2026-04-21 01:06 | 26.97385 | -82.54899 | 40535 ft | 503 kts | 125° |
| 2026-04-21 01:06 | 26.95544 | -82.51555 | 39897 ft | 507 kts | 126° |
| 2026-04-21 01:07 | 26.93679 | -82.48184 | 39241 ft | 512 kts | 126° |
| 2026-04-21 01:07 | 26.91795 | -82.44779 | 38518 ft | 516 kts | 126° |
| 2026-04-21 01:07 | 26.89896 | -82.41362 | 37828 ft | 516 kts | 127° |
| 2026-04-21 01:07 | 26.87955 | -82.37978 | 37143 ft | 516 kts | 127° |
| 2026-04-21 01:08 | 26.85997 | -82.34603 | 36463 ft | 518 kts | 127° |
| 2026-04-21 01:08 | 26.84053 | -82.31189 | 35778 ft | 521 kts | 126° |
| 2026-04-21 01:08 | 26.82140 | -82.27793 | 35103 ft | 524 kts | 126° |
| 2026-04-21 01:08 | 26.80172 | -82.24336 | 34416 ft | 526 kts | 126° |
| 2026-04-21 01:09 | 26.78184 | -82.20885 | 33678 ft | 528 kts | 126° |
| 2026-04-21 01:09 | 26.76210 | -82.17442 | 32979 ft | 524 kts | 126° |
| 2026-04-21 01:09 | 26.74254 | -82.14002 | 32288 ft | 521 kts | 126° |
| 2026-04-21 01:09 | 26.72290 | -82.10612 | 31601 ft | 518 kts | 128° |
| 2026-04-21 01:10 | 26.70261 | -82.07283 | 30904 ft | 518 kts | 128° |
| 2026-04-21 01:10 | 26.68253 | -82.03945 | 30219 ft | 517 kts | 127° |
| 2026-04-21 01:10 | 26.66258 | -82.00605 | 29491 ft | 514 kts | 127° |
| 2026-04-21 01:10 | 26.64260 | -81.97289 | 28788 ft | 515 kts | 128° |
| 2026-04-21 01:11 | 26.62247 | -81.93978 | 28140 ft | 511 kts | 128° |
| 2026-04-21 01:11 | 26.60303 | -81.90761 | 27482 ft | 500 kts | 127° |
| 2026-04-21 01:11 | 26.58375 | -81.87557 | 26828 ft | 493 kts | 127° |
| 2026-04-21 01:11 | 26.56466 | -81.84401 | 26185 ft | 487 kts | 127° |
| 2026-04-21 01:12 | 26.54572 | -81.81285 | 25552 ft | 481 kts | 127° |
| 2026-04-21 01:12 | 26.52707 | -81.78208 | 24922 ft | 473 kts | 127° |
| 2026-04-21 01:12 | 26.50901 | -81.75220 | 24311 ft | 455 kts | 127° |
| 2026-04-21 01:12 | 26.49162 | -81.72348 | 23717 ft | 439 kts | 127° |
| 2026-04-21 01:13 | 26.47463 | -81.69572 | 23096 ft | 427 kts | 128° |
| 2026-04-21 01:13 | 26.45696 | -81.66900 | 22443 ft | 428 kts | 129° |
| 2026-04-21 01:13 | 26.43929 | -81.64253 | 21800 ft | 423 kts | 129° |
| 2026-04-21 01:13 | 26.42190 | -81.61624 | 21163 ft | 419 kts | 129° |
| 2026-04-21 01:14 | 26.40469 | -81.59013 | 20533 ft | 417 kts | 128° |
| 2026-04-21 01:14 | 26.38747 | -81.56417 | 19901 ft | 415 kts | 128° |
| 2026-04-21 01:14 | 26.37032 | -81.53839 | 19261 ft | 412 kts | 128° |
| 2026-04-21 01:14 | 26.35335 | -81.51284 | 18644 ft | 409 kts | 128° |
| 2026-04-21 01:15 | 26.33652 | -81.48746 | 17996 ft | 405 kts | 128° |
| 2026-04-21 01:15 | 26.32011 | -81.46277 | 17401 ft | 397 kts | 127° |
| 2026-04-21 01:15 | 26.30378 | -81.43823 | 16798 ft | 390 kts | 127° |
| 2026-04-21 01:15 | 26.28778 | -81.41418 | 16215 ft | 383 kts | 127° |
| 2026-04-21 01:16 | 26.27206 | -81.39057 | 15649 ft | 376 kts | 127° |
| 2026-04-21 01:16 | 26.25655 | -81.36730 | 15083 ft | 370 kts | 127° |
| 2026-04-21 01:16 | 26.24120 | -81.34426 | 14389 ft | 369 kts | 126° |
| 2026-04-21 01:16 | 26.22606 | -81.32154 | 13803 ft | 360 kts | 126° |
| 2026-04-21 01:17 | 26.21130 | -81.29944 | 13251 ft | 353 kts | 125° |
| 2026-04-21 01:17 | 26.19658 | -81.27737 | 12719 ft | 358 kts | 125° |
| 2026-04-21 01:17 | 26.18187 | -81.25533 | 12182 ft | 349 kts | 126° |
| 2026-04-21 01:17 | 26.16774 | -81.23423 | 11670 ft | 331 kts | 126° |
| 2026-04-21 01:18 | 26.15430 | -81.21417 | 11186 ft | 315 kts | 125° |
| 2026-04-21 01:18 | 26.14160 | -81.19518 | 10731 ft | 305 kts | 124° |
| 2026-04-21 01:18 | 26.12908 | -81.17643 | 10279 ft | 299 kts | 124° |
| 2026-04-21 01:18 | 26.11672 | -81.15797 | 9811 ft | 295 kts | 125° |
| 2026-04-21 01:19 | 26.10455 | -81.13979 | 9357 ft | 290 kts | 125° |
| 2026-04-21 01:19 | 26.09254 | -81.12192 | 8925 ft | 288 kts | 124° |
| 2026-04-21 01:19 | 26.08057 | -81.10401 | 8487 ft | 287 kts | 124° |
| 2026-04-21 01:19 | 26.06876 | -81.08636 | 8056 ft | 281 kts | 124° |
| 2026-04-21 01:20 | 26.05712 | -81.06906 | 7635 ft | 277 kts | 124° |
| 2026-04-21 01:20 | 26.04564 | -81.05199 | 7221 ft | 274 kts | 124° |
| 2026-04-21 01:20 | 26.03433 | -81.03509 | 6808 ft | 271 kts | 124° |
| 2026-04-21 01:20 | 26.02310 | -81.01835 | 6391 ft | 268 kts | 123° |
| 2026-04-21 01:21 | 26.01238 | -81.00164 | 6002 ft | 261 kts | 118° |
| 2026-04-21 01:21 | 26.00524 | -80.98367 | 5986 ft | 252 kts | 108° |
| 2026-04-21 01:21 | 25.99908 | -80.96546 | 5985 ft | 258 kts | 108° |
| 2026-04-21 01:21 | 25.99262 | -80.94688 | 5981 ft | 259 kts | 109° |
| 2026-04-21 01:22 | 25.98593 | -80.92794 | 5983 ft | 258 kts | 108° |
| 2026-04-21 01:22 | 25.97942 | -80.90929 | 5986 ft | 261 kts | 108° |
| 2026-04-21 01:22 | 25.97294 | -80.89060 | 5987 ft | 263 kts | 108° |
| 2026-04-21 01:22 | 25.96636 | -80.87174 | 5986 ft | 263 kts | 108° |
| 2026-04-21 01:23 | 25.95963 | -80.85243 | 5986 ft | 269 kts | 109° |
| 2026-04-21 01:23 | 25.95290 | -80.83319 | 5986 ft | 266 kts | 108° |
| 2026-04-21 01:23 | 25.94615 | -80.81382 | 5985 ft | 271 kts | 108° |
| 2026-04-21 01:23 | 25.93936 | -80.79442 | 5986 ft | 267 kts | 108° |
| 2026-04-21 01:24 | 25.93320 | -80.77488 | 5977 ft | 269 kts | 102° |
| 2026-04-21 01:24 | 25.93073 | -80.75449 | 5976 ft | 263 kts | 93° |
| 2026-04-21 01:24 | 25.92887 | -80.73426 | 5975 ft | 265 kts | 93° |
| 2026-04-21 01:24 | 25.92674 | -80.71383 | 5974 ft | 266 kts | 94° |
| 2026-04-21 01:25 | 25.92460 | -80.69379 | 5971 ft | 265 kts | 94° |
| 2026-04-21 01:25 | 25.92253 | -80.67337 | 5973 ft | 267 kts | 94° |
| 2026-04-21 01:25 | 25.92046 | -80.65292 | 5974 ft | 266 kts | 94° |
| 2026-04-21 01:25 | 25.91834 | -80.63243 | 5878 ft | 269 kts | 94° |
| 2026-04-21 01:26 | 25.91621 | -80.61170 | 5577 ft | 269 kts | 94° |
| 2026-04-21 01:26 | 25.91411 | -80.59130 | 5233 ft | 262 kts | 94° |
| 2026-04-21 01:26 | 25.91205 | -80.57141 | 4888 ft | 257 kts | 94° |
| 2026-04-21 01:26 | 25.91075 | -80.55186 | 4547 ft | 251 kts | 89° |
| 2026-04-21 01:27 | 25.91049 | -80.53259 | 4217 ft | 246 kts | 86° |
| 2026-04-21 01:27 | 25.91038 | -80.51366 | 3895 ft | 245 kts | 86° |
| 2026-04-21 01:27 | 25.91015 | -80.49489 | 3575 ft | 238 kts | 87° |
| 2026-04-21 01:27 | 25.90981 | -80.47686 | 3258 ft | 228 kts | 87° |
| 2026-04-21 01:28 | 25.90949 | -80.45960 | 2962 ft | 219 kts | 86° |
| 2026-04-21 01:28 | 25.90925 | -80.44301 | 2679 ft | 210 kts | 85° |
| 2026-04-21 01:28 | 25.90868 | -80.42727 | 2401 ft | 202 kts | 85° |
| 2026-04-21 01:28 | 25.90943 | -80.41176 | 2141 ft | 195 kts | 82° |
| 2026-04-21 01:29 | 25.91007 | -80.39684 | 1884 ft | 192 kts | 83° |
| 2026-04-21 01:29 | 25.91033 | -80.38222 | 1642 ft | 191 kts | 84° |
| 2026-04-21 01:29 | 25.91041 | -80.36870 | 1414 ft | 155 kts | 83° |
| 2026-04-21 01:29 | 25.91056 | -80.35763 | 1217 ft | 131 kts | 81° |
| 2026-04-21 01:30 | 25.91074 | -80.34838 | 1052 ft | 113 kts | 79° |
| 2026-04-21 01:30 | 25.91095 | -80.33995 | 914 ft | 107 kts | 82° |
| 2026-04-21 01:30 | 25.91107 | -80.33176 | 787 ft | 101 kts | 84° |
| 2026-04-21 01:30 | 25.91120 | -80.32424 | 667 ft | 100 kts | 84° |
| 2026-04-21 01:31 | 25.91131 | -80.31630 | 529 ft | 99 kts | 78° |
| 2026-04-21 01:31 | 25.91170 | -80.30900 | 338 ft | 90 kts | 81° |
| 2026-04-21 01:31 | 25.91214 | -80.30232 | 250 ft | 95 kts | 80° |
| 2026-04-21 01:31 | 25.91218 | -80.29467 | 750 ft | 93 kts | 86° |
| 2026-04-21 01:32 | 25.91244 | -80.28750 | 1523 ft | 98 kts | 73° |
| 2026-04-21 01:32 | 25.91309 | -80.27954 | 2238 ft | 114 kts | 77° |
| 2026-04-21 01:32 | 25.91375 | -80.26956 | 2960 ft | 148 kts | 78° |
| 2026-04-21 01:32 | 25.91883 | -80.25766 | 2994 ft | 186 kts | 45° |
| 2026-04-21 01:33 | 25.93030 | -80.25208 | 2975 ft | 183 kts | 9° |
| 2026-04-21 01:33 | 25.94301 | -80.25547 | 2996 ft | 198 kts | 347° |
| 2026-04-21 01:33 | 25.95611 | -80.26139 | 2985 ft | 204 kts | 344° |
| 2026-04-21 01:33 | 25.96774 | -80.27025 | 2926 ft | 212 kts | 317° |
| 2026-04-21 01:34 | 25.97267 | -80.28643 | 2613 ft | 234 kts | 277° |
| 2026-04-21 01:34 | 25.96804 | -80.30384 | 2322 ft | 239 kts | 243° |
| 2026-04-21 01:34 | 25.95968 | -80.31961 | 2074 ft | 234 kts | 242° |
| 2026-04-21 01:34 | 25.95317 | -80.33570 | 2004 ft | 222 kts | 252° |
| 2026-04-21 01:35 | 25.94810 | -80.35175 | 1999 ft | 221 kts | 255° |
| 2026-04-21 01:35 | 25.94279 | -80.36819 | 1995 ft | 233 kts | 252° |
| 2026-04-21 01:35 | 25.93680 | -80.38519 | 2015 ft | 237 kts | 251° |
| 2026-04-21 01:35 | 25.93078 | -80.40199 | 2001 ft | 233 kts | 252° |
| 2026-04-21 01:36 | 25.92502 | -80.41843 | 1990 ft | 225 kts | 252° |
| 2026-04-21 01:36 | 25.91943 | -80.43465 | 1992 ft | 227 kts | 252° |
| 2026-04-21 01:36 | 25.91550 | -80.44596 | 1991 ft | 236 kts | 251° |
| 2026-04-21 01:36 | 25.90777 | -80.46795 | 1991 ft | 235 kts | 252° |
| 2026-04-21 01:37 | 25.90225 | -80.48482 | 1979 ft | 228 kts | 259° |
| 2026-04-21 01:37 | 25.89996 | -80.50208 | 1984 ft | 227 kts | 272° |
| 2026-04-21 01:37 | 25.89950 | -80.51959 | 1987 ft | 227 kts | 275° |
| 2026-04-21 01:37 | 25.89875 | -80.53702 | 1982 ft | 225 kts | 272° |
| 2026-04-21 01:38 | 25.89763 | -80.55425 | 1980 ft | 222 kts | 272° |
| 2026-04-21 01:38 | 25.90091 | -80.57024 | 1965 ft | 207 kts | 308° |
| 2026-04-21 01:38 | 25.91142 | -80.58003 | 1978 ft | 194 kts | 342° |
| 2026-04-21 01:38 | 25.92418 | -80.58201 | 1980 ft | 187 kts | 11° |
| 2026-04-21 01:39 | 25.93589 | -80.57647 | 1981 ft | 179 kts | 38° |
| 2026-04-21 01:39 | 25.94132 | -80.56970 | 1978 ft | 177 kts | 55° |
| 2026-04-21 01:39 | 25.94476 | -80.55188 | 1975 ft | 189 kts | 90° |
| 2026-04-21 01:39 | 25.93929 | -80.53814 | 1977 ft | 204 kts | 119° |
| 2026-04-21 01:40 | 25.92968 | -80.52619 | 1992 ft | 210 kts | 125° |
| 2026-04-21 01:40 | 25.91984 | -80.51431 | 1994 ft | 207 kts | 124° |
| 2026-04-21 01:40 | 25.91048 | -80.50231 | 1993 ft | 204 kts | 122° |
| 2026-04-21 01:40 | 25.90507 | -80.49401 | 1973 ft | 195 kts | 110° |
| 2026-04-21 01:41 | 25.90294 | -80.47985 | 1988 ft | 186 kts | 81° |
| 2026-04-21 01:41 | 25.90401 | -80.46529 | 1990 ft | 190 kts | 79° |
| 2026-04-21 01:41 | 25.90481 | -80.45083 | 1991 ft | 185 kts | 81° |
| 2026-04-21 01:41 | 25.90546 | -80.43665 | 1988 ft | 183 kts | 82° |
| 2026-04-21 01:42 | 25.90610 | -80.42282 | 1998 ft | 172 kts | 82° |
| 2026-04-21 01:42 | 25.90668 | -80.41007 | 1995 ft | 159 kts | 81° |
| 2026-04-21 01:42 | 25.90728 | -80.39814 | 1908 ft | 147 kts | 81° |
| 2026-04-21 01:42 | 25.90776 | -80.38768 | 1721 ft | 130 kts | 81° |
| 2026-04-21 01:43 | 25.90823 | -80.37808 | 1561 ft | 119 kts | 79° |
| 2026-04-21 01:43 | 25.90867 | -80.36932 | 1411 ft | 108 kts | 78° |
| 2026-04-21 01:43 | 25.90907 | -80.36135 | 1271 ft | 100 kts | 78° |
| 2026-04-21 01:43 | 25.90943 | -80.35382 | 1141 ft | 95 kts | 75° |
| 2026-04-21 01:44 | 25.90987 | -80.34643 | 1022 ft | 100 kts | 80° |
| 2026-04-21 01:44 | 25.91022 | -80.33837 | 911 ft | 108 kts | 82° |
| 2026-04-21 01:44 | 25.91063 | -80.33014 | 762 ft | 101 kts | 81° |
| 2026-04-21 01:44 | 25.91104 | -80.32239 | 629 ft | 101 kts | 79° |
| 2026-04-21 01:45 | 25.91138 | -80.31492 | 457 ft | 100 kts | 77° |
| 2026-04-21 01:45 | 25.91179 | -80.30699 | 350 ft | 99 kts | 79° |
| 2026-04-21 01:45 | 25.91214 | -80.29912 | 328 ft | 115 kts | 82° |
| 2026-04-21 01:45 | 25.91259 | -80.29046 | 367 ft | 108 kts | 82° |
| 2026-04-21 01:46 | 25.91367 | -80.27943 | 390 ft | 186 kts | 82° |
| 2026-04-21 01:46 | 25.91522 | -80.26423 | 917 ft | 190 kts | 79° |
| 2026-04-21 01:46 | 25.91936 | -80.25164 | 1478 ft | 168 kts | 49° |
| 2026-04-21 01:46 | 25.93025 | -80.24573 | 1960 ft | 197 kts | 14° |
| 2026-04-21 01:47 | 25.94429 | -80.24854 | 1986 ft | 212 kts | 341° |
| 2026-04-21 01:47 | 25.95591 | -80.25836 | 1982 ft | 207 kts | 326° |
| 2026-04-21 01:47 | 25.96650 | -80.26888 | 1983 ft | 202 kts | 326° |
| 2026-04-21 01:47 | 25.97576 | -80.28063 | 1971 ft | 210 kts | 305° |
| 2026-04-21 01:48 | 25.97809 | -80.29709 | 1976 ft | 226 kts | 271° |
| 2026-04-21 01:48 | 25.97524 | -80.31408 | 1978 ft | 228 kts | 262° |
| 2026-04-21 01:48 | 25.97189 | -80.33105 | 2325 ft | 213 kts | 261° |
| 2026-04-21 01:48 | 25.96928 | -80.34756 | 3064 ft | 229 kts | 266° |
| 2026-04-21 01:49 | 25.96739 | -80.36521 | 3792 ft | 224 kts | 267° |
| 2026-04-21 01:49 | 25.96559 | -80.38317 | 3993 ft | 245 kts | 268° |
| 2026-04-21 01:49 | 25.96388 | -80.40192 | 3993 ft | 240 kts | 267° |
| 2026-04-21 01:49 | 25.96240 | -80.41997 | 3990 ft | 230 kts | 268° |
| 2026-04-21 01:50 | 25.96109 | -80.43767 | 3990 ft | 233 kts | 270° |
| 2026-04-21 01:50 | 25.96058 | -80.45660 | 3995 ft | 258 kts | 272° |
| 2026-04-21 01:50 | 25.96037 | -80.47697 | 4000 ft | 267 kts | 273° |
| 2026-04-21 01:50 | 25.96024 | -80.49759 | 3998 ft | 267 kts | 272° |
| 2026-04-21 01:51 | 25.96018 | -80.51852 | 3998 ft | 272 kts | 273° |
| 2026-04-21 01:51 | 25.95995 | -80.53962 | 3992 ft | 276 kts | 269° |
| 2026-04-21 01:51 | 25.95357 | -80.55973 | 3970 ft | 279 kts | 236° |
| 2026-04-21 01:51 | 25.93877 | -80.57317 | 3969 ft | 278 kts | 202° |
| 2026-04-21 01:52 | 25.92005 | -80.57702 | 3983 ft | 270 kts | 178° |
| 2026-04-21 01:52 | 25.88288 | -80.57960 | 4913 ft | 282 kts | 189° |
| 2026-04-21 01:52 | 25.86376 | -80.58561 | 4982 ft | 285 kts | 197° |
| 2026-04-21 01:53 | 25.84528 | -80.59315 | 4984 ft | 283 kts | 199° |
| 2026-04-21 01:53 | 25.82625 | -80.59742 | 4965 ft | 276 kts | 175° |
| 2026-04-21 01:53 | 25.80835 | -80.59086 | 4907 ft | 273 kts | 144° |
| 2026-04-21 01:53 | 25.79598 | -80.57558 | 4628 ft | 264 kts | 115° |
| 2026-04-21 01:54 | 25.79155 | -80.55657 | 4313 ft | 250 kts | 90° |
| 2026-04-21 01:54 | 25.79248 | -80.53762 | 4019 ft | 244 kts | 82° |
| 2026-04-21 01:54 | 25.79388 | -80.51886 | 3713 ft | 241 kts | 83° |
| 2026-04-21 01:54 | 25.79466 | -80.50079 | 3408 ft | 228 kts | 84° |
| 2026-04-21 01:55 | 25.79524 | -80.48362 | 3132 ft | 216 kts | 84° |
| 2026-04-21 01:55 | 25.79582 | -80.46819 | 2881 ft | 181 kts | 83° |
| 2026-04-21 01:55 | 25.79641 | -80.45467 | 2657 ft | 176 kts | 82° |
| 2026-04-21 01:55 | 25.79700 | -80.44151 | 2430 ft | 162 kts | 81° |
| 2026-04-21 01:56 | 25.79744 | -80.42979 | 2225 ft | 143 kts | 79° |
| 2026-04-21 01:56 | 25.79793 | -80.41898 | 2045 ft | 138 kts | 79° |
| 2026-04-21 01:56 | 25.79842 | -80.40845 | 1864 ft | 137 kts | 80° |
| 2026-04-21 01:56 | 25.79888 | -80.39779 | 1682 ft | 139 kts | 79° |
| 2026-04-21 01:57 | 25.79934 | -80.38705 | 1498 ft | 139 kts | 80° |
| 2026-04-21 01:57 | 25.79978 | -80.37649 | 1316 ft | 135 kts | 81° |
| 2026-04-21 01:57 | 25.80018 | -80.36642 | 1142 ft | 128 kts | 80° |
| 2026-04-21 01:57 | 25.80057 | -80.35686 | 986 ft | 119 kts | 80° |
| 2026-04-21 01:58 | 25.80094 | -80.34786 | 834 ft | 113 kts | 81° |
| 2026-04-21 01:58 | 25.80131 | -80.33955 | 695 ft | 102 kts | 82° |
| 2026-04-21 01:58 | 25.80167 | -80.33162 | 578 ft | 106 kts | 81° |
| 2026-04-21 01:58 | 25.80197 | -80.32367 | 428 ft | 98 kts | 83° |
| 2026-04-21 01:59 | 25.80221 | -80.31623 | 356 ft | 98 kts | 82° |
| 2026-04-21 01:59 | 25.80251 | -80.30902 | 218 ft | 90 kts | 81° |
| 2026-04-21 01:59 | 25.80290 | -80.30204 | 66 ft | 91 kts | 83° |
| 2026-04-21 01:59 | 25.80317 | -80.29576 | 15 ft | 68 kts | 86° |
| 2026-04-21 02:00 | 25.80331 | -80.29205 | 15 ft | 33 kts | 89° |
| 2026-04-21 02:00 | 25.80371 | -80.29126 | 15 ft | 9 kts | 342° |
| 2026-04-21 02:00 | 25.80424 | -80.29155 | 16 ft | 5 kts | 357° |
| 2026-04-21 02:00 | 25.80435 | -80.29153 | 16 ft | 0 kts | 12° |
| 2026-04-21 02:01 | 25.80470 | -80.29145 | 14 ft | 12 kts | 11° |
| 2026-04-21 02:01 | 25.80552 | -80.29138 | 13 ft | 12 kts | 0° |
| 2026-04-21 02:01 | 25.80631 | -80.29121 | 12 ft | 10 kts | 44° |
| 2026-04-21 02:01 | 25.80634 | -80.29105 | 12 ft | 8 kts | 114° |
| 2026-04-21 02:02 | 25.80616 | -80.29058 | 13 ft | 1 kts | 43° |
| 2026-04-21 02:02 | 25.80619 | -80.29058 | 13 ft | 0 kts | 4° |